createdAt,value
2018-07-16T00:01:03.629Z,95953.14
2018-07-16T00:03:33.438Z,95956.32
2018-07-16T00:06:03.252Z,95953.33
2018-07-16T00:08:33.090Z,95948.86
2018-07-16T00:11:02.950Z,95951.50
2018-07-16T00:13:33.160Z,95944.80
2018-07-16T00:16:02.974Z,95951.05
2018-07-16T00:18:33.073Z,95950.22
2018-07-16T00:21:02.853Z,95949.58
2018-07-16T00:23:33.039Z,95956.89
2018-07-16T00:26:02.812Z,95959.14
2018-07-16T00:28:32.621Z,95955.96
2018-07-16T00:31:02.590Z,95952.52
2018-07-16T00:33:32.420Z,95939.78
2018-07-16T00:36:02.354Z,95945.53
2018-07-16T00:38:32.130Z,95937.09
2018-07-16T00:41:01.914Z,95934.39
2018-07-16T00:43:31.700Z,95936.56
2018-07-16T00:46:01.875Z,95941.99
2018-07-16T00:48:31.886Z,95938.17
2018-07-16T00:51:02.064Z,95941.81
2018-07-16T00:53:31.932Z,95940.44
2018-07-16T00:56:01.767Z,95940.89
2018-07-16T00:58:31.604Z,95945.95
2018-07-16T01:01:01.516Z,95941.54
2018-07-16T01:03:31.824Z,95944.84
2018-07-16T01:06:01.641Z,95935.70
2018-07-16T01:08:31.450Z,95923.44
2018-07-16T01:11:01.263Z,95924.89
2018-07-16T01:13:30.718Z,95919.92
2018-07-16T01:16:00.498Z,95921.35
2018-07-16T01:18:30.346Z,95918.20
2018-07-16T01:21:00.142Z,95914.46
2018-07-16T01:23:29.956Z,95913.45
2018-07-16T01:25:59.728Z,95920.52
2018-07-16T01:28:30.478Z,95918.00
2018-07-16T01:31:00.242Z,95920.98
2018-07-16T01:33:30.366Z,95929.44
2018-07-16T01:36:00.418Z,95922.68
2018-07-16T01:38:30.316Z,95923.26
2018-07-16T01:41:00.206Z,95919.66
2018-07-16T01:44:21.366Z,95920.38
2018-07-16T01:46:51.204Z,95925.86
2018-07-16T01:49:21.071Z,95928.73
2018-07-16T01:51:50.946Z,95930.48
2018-07-16T01:54:20.802Z,95926.16
2018-07-16T01:56:50.737Z,95927.39
2018-07-16T01:59:20.526Z,95930.53
2018-07-16T02:01:50.394Z,95934.70
2018-07-16T02:04:20.208Z,95935.06
2018-07-16T02:06:50.200Z,95936.08
2018-07-16T02:09:20.110Z,95930.33
2018-07-16T02:11:50.320Z,95933.27
2018-07-16T02:14:20.168Z,95929.91
2018-07-16T02:16:50.034Z,95925.23
2018-07-16T02:19:19.907Z,95928.35
2018-07-16T02:21:50.194Z,95933.50
2018-07-16T02:24:20.325Z,95932.48
2018-07-16T02:26:50.512Z,95931.70
2018-07-16T02:29:20.826Z,95941.59
2018-07-16T02:31:50.624Z,95938.80
2018-07-16T02:34:20.466Z,95938.55
2018-07-16T02:36:50.319Z,95941.22
2018-07-16T02:39:20.122Z,95944.58
2018-07-16T02:41:50.177Z,95938.02
2018-07-16T02:44:20.105Z,95942.02
2018-07-16T02:46:49.905Z,95939.60
2018-07-16T02:49:20.195Z,95933.25
2018-07-16T02:51:50.048Z,95927.83
2018-07-16T02:54:20.073Z,95926.78
2018-07-16T02:57:24.742Z,95923.85
2018-07-16T02:59:54.625Z,95922.96
2018-07-16T03:02:24.421Z,95922.75
2018-07-16T03:04:54.281Z,95917.59
2018-07-16T03:07:24.487Z,95924.36
2018-07-16T03:09:54.507Z,95920.85
2018-07-16T03:12:24.373Z,95927.93
2018-07-16T03:14:54.324Z,95922.02
2018-07-16T03:17:24.753Z,95922.95
2018-07-16T03:19:54.547Z,95922.19
2018-07-16T03:22:24.680Z,95930.87
2018-07-16T03:24:54.532Z,95927.59
2018-07-16T03:27:24.388Z,95930.44
2018-07-16T03:29:54.259Z,95939.16
2018-07-16T03:32:24.307Z,95938.90
2018-07-16T03:34:54.182Z,95932.75
2018-07-16T03:37:24.355Z,95934.20
2018-07-16T03:39:54.196Z,95935.91
2018-07-16T03:42:23.963Z,95933.64
2018-07-16T03:44:53.853Z,95931.83
2018-07-16T03:47:23.675Z,95929.94
2018-07-16T03:49:53.471Z,95928.89
2018-07-16T03:52:23.719Z,95928.70
2018-07-16T03:54:53.600Z,95931.70
2018-07-16T03:57:23.811Z,95932.93
2018-07-16T03:59:53.630Z,95932.09
2018-07-16T04:02:23.500Z,95931.61
2018-07-16T04:05:05.132Z,95933.62
2018-07-16T04:07:35.379Z,95930.53
2018-07-16T04:10:05.187Z,95930.98
2018-07-16T04:12:35.003Z,95937.60
2018-07-16T04:15:05.584Z,95933.77
2018-07-16T04:17:35.775Z,95936.08
2018-07-16T04:20:05.996Z,95940.99
2018-07-16T04:22:35.834Z,95941.83
2018-07-16T04:25:05.733Z,95947.79
2018-07-16T04:27:35.637Z,95944.82
2018-07-16T04:30:05.901Z,95943.98
2018-07-16T04:32:35.737Z,95947.25
2018-07-16T04:35:05.614Z,95945.69
2018-07-16T04:37:35.470Z,95944.44
2018-07-16T04:40:05.778Z,95944.73
2018-07-16T04:42:35.603Z,95952.42
2018-07-16T04:45:05.431Z,95953.94
2018-07-16T04:47:35.291Z,95960.20
2018-07-16T04:50:05.447Z,95961.21
2018-07-16T04:52:35.325Z,95961.74
2018-07-16T04:55:05.751Z,95964.92
2018-07-16T04:57:35.812Z,95973.11
2018-07-16T05:00:06.511Z,95959.69
2018-07-16T05:02:36.643Z,95952.62
2018-07-16T05:05:06.527Z,95956.94
2018-07-16T05:07:36.415Z,95951.98
2018-07-16T05:10:06.466Z,95952.91
2018-07-16T05:12:36.886Z,95960.13
2018-07-16T05:15:07.431Z,95958.91
2018-07-16T05:17:37.808Z,95946.31
2018-07-16T05:20:08.919Z,95942.29
2018-07-16T05:22:39.332Z,95943.84
2018-07-16T05:25:09.694Z,95951.70
2018-07-16T05:27:40.231Z,95950.95
2018-07-16T05:30:10.699Z,95954.52
2018-07-16T05:32:41.374Z,95954.33
2018-07-16T05:35:11.264Z,95948.66
2018-07-16T05:37:41.107Z,95950.73
2018-07-16T05:40:10.905Z,95947.86
2018-07-16T05:42:41.327Z,95947.75
2018-07-16T05:45:12.214Z,95953.92
2018-07-16T05:47:42.613Z,95956.03
2018-07-16T05:50:13.576Z,95963.08
2018-07-16T05:52:43.971Z,95962.92
2018-07-16T05:55:14.372Z,95962.80
2018-07-16T05:57:44.848Z,95961.78
2018-07-16T06:00:15.244Z,95952.80
2018-07-16T06:02:45.644Z,95954.66
2018-07-16T06:05:16.207Z,95953.52
2018-07-16T06:07:46.617Z,95945.27
2018-07-16T06:10:17.295Z,95950.92
2018-07-16T06:12:47.671Z,95949.89
2018-07-16T06:15:18.117Z,95947.34
2018-07-16T06:17:48.524Z,95947.38
2018-07-16T06:20:18.946Z,95943.70
2018-07-16T06:22:49.567Z,95950.42
2018-07-16T06:25:19.906Z,95940.23
2018-07-16T06:27:50.284Z,95940.41
2018-07-16T06:30:20.660Z,95936.45
2018-07-16T06:32:51.020Z,95937.90
2018-07-16T06:35:21.390Z,95939.55
2018-07-16T06:37:51.814Z,95932.19
2018-07-16T06:40:22.249Z,95940.61
2018-07-16T06:42:53.324Z,95940.17
2018-07-16T06:45:23.702Z,95936.25
2018-07-16T06:47:54.155Z,95933.06
2018-07-16T06:50:24.577Z,95930.41
2018-07-16T06:52:55.246Z,95932.26
2018-07-16T06:55:25.993Z,95927.90
2018-07-16T06:57:56.333Z,95921.87
2018-07-16T07:00:27.368Z,95925.86
2018-07-16T07:02:58.088Z,95915.31
2018-07-16T07:05:28.390Z,95918.35
2018-07-16T07:07:59.012Z,95925.78
2018-07-16T07:10:29.336Z,95920.43
2018-07-16T07:12:59.660Z,95915.31
2018-07-16T07:15:30.362Z,95907.47
2018-07-16T07:18:00.839Z,95912.10
2018-07-16T07:20:31.108Z,95908.69
2018-07-16T07:23:01.569Z,95912.61
2018-07-16T07:25:31.930Z,95907.17
2018-07-16T07:28:02.576Z,95905.83
2018-07-16T07:30:33.282Z,95896.02
2018-07-16T07:33:03.720Z,95900.19
2018-07-16T07:35:34.160Z,95894.07
2018-07-16T07:38:04.739Z,95891.91
2018-07-16T07:41:23.028Z,95895.52
2018-07-16T07:43:53.381Z,95887.00
2018-07-16T07:46:24.157Z,95881.66
2018-07-16T07:48:54.784Z,95880.94
2018-07-16T07:51:25.127Z,95872.00
2018-07-16T07:53:55.644Z,95870.70
2018-07-16T07:56:26.005Z,95863.52
2018-07-16T07:58:56.357Z,95857.81
2018-07-16T08:01:27.003Z,95854.63
2018-07-16T08:03:57.697Z,95853.61
2018-07-16T08:06:28.027Z,95859.23
2018-07-16T08:08:58.427Z,95853.45
2018-07-16T08:11:28.751Z,95852.42
2018-07-16T08:13:59.263Z,95845.51
2018-07-16T08:16:29.847Z,95843.77
2018-07-16T08:19:00.498Z,95835.28
2018-07-16T08:21:31.401Z,95831.63
2018-07-16T08:24:02.007Z,95834.03
2018-07-16T08:26:32.754Z,95834.00
2018-07-16T08:29:03.350Z,95837.89
2018-07-16T08:31:33.671Z,95836.25
2018-07-16T08:34:04.287Z,95832.31
2018-07-16T08:36:34.833Z,95832.07
2018-07-16T08:39:06.249Z,95826.52
2018-07-16T08:41:36.702Z,95833.89
2018-07-16T08:44:07.633Z,95828.52
2018-07-16T08:46:38.029Z,95827.69
2018-07-16T08:49:08.756Z,95828.81
2018-07-16T08:51:39.139Z,95829.38
2018-07-16T08:54:09.497Z,95829.22
2018-07-16T08:56:39.869Z,95830.04
2018-07-16T08:59:10.387Z,95826.38
2018-07-16T09:01:41.147Z,95830.98
2018-07-16T09:04:11.518Z,95827.28
2018-07-16T09:06:42.061Z,95825.30
2018-07-16T09:09:12.402Z,95822.99
2018-07-16T09:11:42.771Z,95820.29
2018-07-16T09:14:13.145Z,95814.44
2018-07-16T09:16:44.421Z,95823.52
2018-07-16T09:19:14.962Z,95812.31
2018-07-16T09:21:45.411Z,95820.64
2018-07-16T09:24:15.829Z,95817.67
2018-07-16T09:26:46.180Z,95815.14
2018-07-16T09:29:16.724Z,95821.82
2018-07-16T09:31:47.515Z,95827.20
2018-07-16T09:34:17.845Z,95822.72
2018-07-16T09:36:48.165Z,95821.31
2018-07-16T09:39:18.556Z,95819.41
2018-07-16T09:41:48.950Z,95820.09
2018-07-16T09:44:19.720Z,95817.09
2018-07-16T09:46:50.246Z,95813.83
2018-07-16T09:49:20.963Z,95814.41
2018-07-16T09:51:51.301Z,95812.41
2018-07-16T09:54:21.792Z,95813.30
2018-07-16T09:56:52.146Z,95813.05
2018-07-16T09:59:22.752Z,95813.27
2018-07-16T10:01:58.256Z,95799.81
2018-07-16T10:04:29.080Z,95804.02
2018-07-16T10:06:59.464Z,95799.20
2018-07-16T10:09:30.889Z,95800.33
2018-07-16T10:12:01.651Z,95794.73
2018-07-16T10:14:33.695Z,95791.59
2018-07-16T10:17:04.381Z,95785.58
2018-07-16T10:19:34.770Z,95783.25
2018-07-16T10:22:05.189Z,95774.64
2018-07-16T10:24:35.589Z,95781.51
2018-07-16T10:27:06.067Z,95773.28
2018-07-16T10:29:36.472Z,95771.21
2018-07-16T10:32:07.121Z,95769.53
2018-07-16T10:34:37.555Z,95763.83
2018-07-16T10:37:07.923Z,95758.84
2018-07-16T10:39:38.304Z,95751.48
2018-07-16T10:42:08.992Z,95747.56
2018-07-16T10:44:39.127Z,95753.59
2018-07-16T10:47:09.484Z,95755.87
2018-07-16T10:49:39.852Z,95746.38
2018-07-16T10:52:10.627Z,95744.31
2018-07-16T10:54:41.825Z,95734.43
2018-07-16T10:57:12.431Z,95731.59
2018-07-16T10:59:42.955Z,95723.36
2018-07-16T11:02:13.818Z,95724.69
2018-07-16T11:04:43.965Z,95718.30
2018-07-16T11:07:14.331Z,95715.83
2018-07-16T11:09:44.457Z,95707.52
2018-07-16T11:12:14.531Z,95711.06
2018-07-16T11:14:44.673Z,95708.76
2018-07-16T11:17:14.870Z,95702.42
2018-07-16T11:19:45.036Z,95702.55
2018-07-16T11:22:15.747Z,95697.50
2018-07-16T11:24:45.855Z,95697.84
2018-07-16T11:27:17.275Z,95696.23
2018-07-16T11:29:47.676Z,95689.28
2018-07-16T11:32:17.783Z,95696.70
2018-07-16T11:34:48.462Z,95691.02
2018-07-16T11:37:18.840Z,95693.18
2018-07-16T11:39:49.215Z,95686.92
2018-07-16T11:42:19.629Z,95690.50
2018-07-16T11:44:49.987Z,95683.73
2018-07-16T11:47:20.315Z,95682.18
2018-07-16T11:49:50.715Z,95674.61
2018-07-16T11:52:21.109Z,95662.59
2018-07-16T11:54:51.801Z,95670.09
2018-07-16T11:57:22.295Z,95663.52
2018-07-16T11:59:52.445Z,95658.22
2018-07-16T12:02:22.470Z,95657.16
2018-07-16T12:04:52.571Z,95652.94
2018-07-16T12:07:22.657Z,95643.32
2018-07-16T12:09:52.733Z,95633.56
2018-07-16T12:12:23.255Z,95641.18
2018-07-16T12:14:53.335Z,95638.48
2018-07-16T12:17:23.459Z,95633.66
2018-07-16T12:19:53.468Z,95630.08
2018-07-16T12:22:23.551Z,95625.31
2018-07-16T12:24:53.653Z,95631.72
2018-07-16T12:27:23.955Z,95624.38
2018-07-16T12:29:54.116Z,95619.53
2018-07-16T12:32:24.145Z,95613.41
2018-07-16T12:34:54.572Z,95613.27
2018-07-16T12:37:24.636Z,95614.53
2018-07-16T12:39:54.994Z,95619.09
2018-07-16T12:42:25.292Z,95613.13
2018-07-16T12:44:55.688Z,95608.58
2018-07-16T12:47:26.368Z,95604.40
2018-07-16T12:49:56.784Z,95600.48
2018-07-16T12:52:26.840Z,95595.34
2018-07-16T12:54:56.889Z,95595.10
2018-07-16T12:57:26.970Z,95591.81
2018-07-16T12:59:57.082Z,95594.91
2018-07-16T13:02:27.803Z,95595.23
2018-07-16T13:04:58.156Z,95597.50
2018-07-16T13:07:28.626Z,95593.42
2018-07-16T13:09:58.999Z,95580.75
2018-07-16T13:12:29.412Z,95581.45
2018-07-16T13:14:59.834Z,95573.89
2018-07-16T13:17:30.269Z,95582.62
2018-07-16T13:20:00.680Z,95579.55
2018-07-16T13:22:31.046Z,95575.23
2018-07-16T13:25:01.228Z,95587.14
2018-07-16T13:27:31.607Z,95571.91
2018-07-16T13:30:01.665Z,95568.69
2018-07-16T13:32:32.047Z,95571.69
2018-07-16T13:35:02.133Z,95567.23
2018-07-16T13:37:32.863Z,95570.20
2018-07-16T13:40:02.985Z,95566.32
2018-07-16T13:42:33.297Z,95556.64
2018-07-16T13:45:03.827Z,95564.84
2018-07-16T13:47:33.916Z,95558.91
2018-07-16T13:50:04.384Z,95558.50
2018-07-16T13:52:34.808Z,95555.75
2018-07-16T13:55:05.214Z,95556.38
2018-07-16T13:57:36.378Z,95556.25
2018-07-16T14:00:07.098Z,95552.45
2018-07-16T14:02:37.224Z,95549.22
2018-07-16T14:05:07.266Z,95551.63
2018-07-16T14:07:37.746Z,95553.44
2018-07-16T14:10:08.532Z,95549.39
2018-07-16T14:12:38.977Z,95548.86
2018-07-16T14:15:09.388Z,95542.28
2018-07-16T14:17:39.904Z,95547.11
2018-07-16T14:20:10.630Z,95534.13
2018-07-16T14:22:40.984Z,95552.30
2018-07-16T14:25:11.431Z,95538.08
2018-07-16T14:27:42.030Z,95527.13
2018-07-16T14:30:12.421Z,95533.30
2018-07-16T14:32:42.800Z,95546.88
2018-07-16T14:35:13.541Z,95542.27
2018-07-16T14:37:44.037Z,95533.64
2018-07-16T14:40:14.464Z,95527.47
2018-07-16T14:42:44.836Z,95532.08
2018-07-16T14:45:15.269Z,95523.56
2018-07-16T14:47:46.157Z,95526.64
2018-07-16T14:50:16.691Z,95524.25
2018-07-16T14:52:47.258Z,95523.83
2018-07-16T14:55:18.358Z,95521.67
2018-07-16T14:57:48.728Z,95524.92
2018-07-16T15:00:19.690Z,95519.86
2018-07-16T15:02:50.049Z,95521.28
2018-07-16T15:05:20.427Z,95522.02
2018-07-16T15:07:50.755Z,95517.86
2018-07-16T15:10:21.112Z,95522.88
2018-07-16T15:12:51.821Z,95519.55
2018-07-16T15:15:22.183Z,95516.71
2018-07-16T15:17:52.690Z,95523.67
2018-07-16T15:20:23.282Z,95508.06
2018-07-16T15:22:54.151Z,95520.41
2018-07-16T15:25:24.470Z,95521.35
2018-07-16T15:27:54.886Z,95526.61
2018-07-16T15:30:25.369Z,95520.10
2018-07-16T15:32:55.734Z,95514.03
2018-07-16T15:35:26.412Z,95509.30
2018-07-16T15:37:56.980Z,95515.46
2018-07-16T15:40:27.372Z,95513.52
2018-07-16T15:42:57.836Z,95499.66
2018-07-16T15:45:28.278Z,95507.66
2018-07-16T15:47:58.671Z,95496.61
2018-07-16T15:50:29.049Z,95494.13
2018-07-16T15:52:59.541Z,95498.37
2018-07-16T15:55:30.069Z,95489.53
2018-07-16T15:58:00.435Z,95481.17
2018-07-16T16:00:30.995Z,95483.03
2018-07-16T16:03:01.324Z,95479.56
2018-07-16T16:05:31.697Z,95478.98
2018-07-16T16:08:02.317Z,95473.27
2018-07-16T16:10:32.775Z,95469.53
2018-07-16T16:13:03.196Z,95474.83
2018-07-16T16:15:33.599Z,95472.75
2018-07-16T16:18:03.757Z,95472.16
2018-07-16T16:20:34.485Z,95473.13
2018-07-16T16:23:04.778Z,95469.33
2018-07-16T16:25:35.673Z,95469.44
2018-07-16T16:28:06.101Z,95470.39
2018-07-16T16:30:36.233Z,95473.02
2018-07-16T16:33:06.590Z,95475.46
2018-07-16T16:35:37.759Z,95477.80
2018-07-16T16:38:08.237Z,95478.19
2018-07-16T16:40:38.932Z,95475.80
2018-07-16T16:43:09.400Z,95476.44
2018-07-16T16:45:40.163Z,95468.41
2018-07-16T16:48:11.160Z,95470.94
2018-07-16T16:50:41.571Z,95478.29
2018-07-16T16:53:11.916Z,95486.34
2018-07-16T16:55:42.320Z,95482.14
2018-07-16T16:58:12.696Z,95484.02
2018-07-16T17:00:43.136Z,95480.46
2018-07-16T17:03:15.051Z,95475.73
2018-07-16T17:05:45.461Z,95483.27
2018-07-16T17:08:16.546Z,95473.86
2018-07-16T17:10:46.960Z,95483.64
2018-07-16T17:13:17.422Z,95476.30
2018-07-16T17:15:47.862Z,95483.82
2018-07-16T17:18:18.384Z,95480.79
2018-07-16T17:20:49.486Z,95496.28
2018-07-16T17:23:19.965Z,95483.84
2018-07-16T17:25:50.502Z,95490.67
2018-07-16T17:28:21.264Z,95498.03
2018-07-16T17:30:51.842Z,95497.77
2018-07-16T17:34:51.983Z,95498.14
2018-07-16T17:37:22.458Z,95503.70
2018-07-16T17:39:53.082Z,95504.98
2018-07-16T17:42:23.881Z,95497.36
2018-07-16T17:44:55.187Z,95500.40
2018-07-16T17:47:27.678Z,95503.43
2018-07-16T17:49:58.043Z,95514.21
2018-07-16T17:52:28.423Z,95513.70
2018-07-16T17:54:58.782Z,95510.99
2018-07-16T17:57:29.257Z,95508.97
2018-07-16T17:59:59.726Z,95513.72
2018-07-16T18:02:30.107Z,95513.72
2018-07-16T18:05:00.541Z,95514.52
2018-07-16T18:07:30.898Z,95519.33
2018-07-16T18:10:01.465Z,95524.12
2018-07-16T18:12:31.833Z,95522.72
2018-07-16T18:15:02.319Z,95529.82
2018-07-16T18:17:33.060Z,95534.44
2018-07-16T18:20:03.435Z,95530.36
2018-07-16T18:22:33.793Z,95535.83
2018-07-16T18:25:04.223Z,95540.36
2018-07-16T18:27:34.953Z,95544.00
2018-07-16T18:30:06.231Z,95552.77
2018-07-16T18:32:36.683Z,95551.01
2018-07-16T18:35:07.222Z,95554.24
2018-07-16T18:37:37.704Z,95555.06
2018-07-16T18:40:08.233Z,95557.48
2018-07-16T18:42:38.871Z,95550.13
2018-07-16T18:45:10.041Z,95570.17
2018-07-16T18:47:40.505Z,95568.37
2018-07-16T18:50:11.005Z,95568.27
2018-07-16T18:52:42.503Z,95570.62
2018-07-16T18:55:12.891Z,95577.91
2018-07-16T18:57:43.810Z,95577.62
2018-07-16T19:00:14.429Z,95580.34
2018-07-16T19:02:45.083Z,95587.22
2018-07-16T19:05:15.523Z,95592.50
2018-07-16T19:07:46.232Z,95592.17
2018-07-16T19:10:16.602Z,95596.42
2018-07-16T19:12:47.019Z,95594.05
2018-07-16T19:15:26.166Z,95595.16
2018-07-16T19:17:57.541Z,95594.81
2018-07-16T19:20:28.622Z,95589.45
2018-07-16T19:22:59.819Z,95595.98
2018-07-16T19:25:30.575Z,95598.73
2018-07-16T19:28:00.966Z,95597.14
2018-07-16T19:30:32.825Z,95606.04
2018-07-16T19:33:03.270Z,95612.73
2018-07-16T19:35:33.650Z,95610.93
2018-07-16T19:38:04.239Z,95619.84
2018-07-16T19:40:34.629Z,95622.41
2018-07-16T19:43:05.154Z,95620.94
2018-07-16T19:45:35.527Z,95628.94
2018-07-16T19:48:05.912Z,95639.72
2018-07-16T19:50:36.264Z,95647.29
2018-07-16T19:53:06.990Z,95651.24
2018-07-16T19:55:37.480Z,95654.05
2018-07-16T19:58:08.011Z,95662.02
2018-07-16T20:00:38.467Z,95673.63
2018-07-16T20:03:09.050Z,95671.28
2018-07-16T20:05:39.474Z,95666.00
2018-07-16T20:08:09.930Z,95674.30
2018-07-16T20:10:40.564Z,95683.82
2018-07-16T20:13:11.077Z,95687.37
2018-07-16T20:15:41.830Z,95688.55
2018-07-16T20:18:13.760Z,95694.67
2018-07-16T20:20:59.320Z,95700.72
2018-07-16T20:23:31.698Z,95698.62
2018-07-16T20:26:02.590Z,95705.23
2018-07-16T20:28:33.024Z,95707.79
2018-07-16T20:31:03.474Z,95708.33
2018-07-16T20:33:34.251Z,95709.86
2018-07-16T20:36:04.824Z,95709.02
2018-07-16T20:38:35.512Z,95712.41
2018-07-16T20:41:05.941Z,95718.47
2018-07-16T20:43:36.402Z,95722.47
2018-07-16T20:46:06.928Z,95737.24
2018-07-16T20:48:37.324Z,95747.56
2018-07-16T20:51:08.464Z,95756.24
2018-07-16T20:53:39.234Z,95750.36
2018-07-16T20:56:09.644Z,95751.19
2018-07-16T20:58:40.164Z,95752.45
2018-07-16T21:01:10.690Z,95754.78
2018-07-16T21:03:41.121Z,95756.83
2018-07-16T21:06:11.817Z,95759.73
2018-07-16T21:08:42.505Z,95757.77
2018-07-16T21:11:12.901Z,95762.95
2018-07-16T21:13:43.290Z,95764.05
2018-07-16T21:16:13.709Z,95760.44
2018-07-16T21:18:44.087Z,95762.73
2018-07-16T21:21:14.521Z,95762.61
2018-07-16T21:23:44.933Z,95771.38
2018-07-16T21:26:15.689Z,95769.70
2018-07-16T21:28:46.187Z,95765.83
2018-07-16T21:31:16.709Z,95768.83
2018-07-16T21:33:47.423Z,95768.21
2018-07-16T21:36:17.857Z,95769.97
2018-07-16T21:38:48.611Z,95769.33
2018-07-16T21:41:19.384Z,95774.88
2018-07-16T21:43:49.813Z,95779.34
2018-07-16T21:46:20.266Z,95778.98
2018-07-16T21:48:50.784Z,95783.97
2018-07-16T21:51:21.449Z,95781.08
2018-07-16T21:53:51.967Z,95776.92
2018-07-16T21:56:23.723Z,95782.50
2018-07-16T22:02:30.572Z,95785.63
2018-07-16T22:05:01.072Z,95786.52
2018-07-16T22:07:31.446Z,95780.09
2018-07-16T22:10:01.877Z,95784.99
2018-07-16T22:12:32.537Z,95782.22
2018-07-16T22:15:03.275Z,95783.47
2018-07-16T22:17:33.668Z,95783.47
2018-07-16T22:20:04.273Z,95791.03
2018-07-16T22:22:34.699Z,95790.41
2018-07-16T22:25:04.801Z,95795.02
2018-07-16T22:27:35.334Z,95790.86
2018-07-16T22:30:05.880Z,95786.98
2018-07-16T22:32:37.094Z,95792.06
2018-07-16T22:35:07.571Z,95793.01
2018-07-16T22:37:38.043Z,95797.94
2018-07-16T22:40:09.370Z,95800.89
2018-07-16T22:42:39.828Z,95798.70
2018-07-16T22:45:11.027Z,95795.02
2018-07-16T22:47:41.434Z,95799.48
2018-07-16T22:50:11.839Z,95808.71
2018-07-16T22:52:42.247Z,95805.78
2018-07-16T22:55:12.872Z,95814.37
2018-07-16T22:57:43.564Z,95808.47
2018-07-16T23:00:14.918Z,95812.08
2018-07-16T23:02:45.297Z,95811.66
2018-07-16T23:05:15.680Z,95813.02
2018-07-16T23:07:46.101Z,95825.33
2018-07-16T23:10:18.026Z,95821.87
2018-07-16T23:12:48.492Z,95823.00
2018-07-16T23:15:18.884Z,95832.63
2018-07-16T23:17:49.278Z,95824.09
2018-07-16T23:20:19.700Z,95823.17
2018-07-16T23:22:54.304Z,95823.74
2018-07-16T23:25:24.209Z,95823.18
2018-07-16T23:27:54.153Z,95825.44
2018-07-16T23:30:23.966Z,95831.47
2018-07-16T23:32:53.809Z,95834.14
2018-07-16T23:35:24.328Z,95841.67
2018-07-16T23:37:54.160Z,95842.20
2018-07-16T23:40:24.262Z,95841.27
2018-07-16T23:42:54.667Z,95832.09
2018-07-16T23:45:25.178Z,95833.22
2018-07-16T23:47:55.560Z,95840.61
2018-07-16T23:50:26.505Z,95839.73
2018-07-16T23:52:57.012Z,95835.91
2018-07-16T23:55:27.573Z,95839.68
2018-07-16T23:57:58.510Z,95840.47
